createdAt,value
2022-10-15T00:02:25.326Z,17.43
2022-10-15T00:05:00.089Z,15.97
2022-10-15T00:07:33.685Z,14.77
2022-10-15T00:10:05.082Z,15.07
2022-10-15T00:12:36.085Z,15.03
2022-10-15T00:15:08.377Z,14.70
2022-10-15T00:17:40.616Z,14.03
2022-10-15T00:20:15.568Z,12.23
2022-10-15T00:22:47.355Z,12.13
2022-10-15T00:25:18.418Z,12.80
2022-10-15T00:27:49.223Z,12.33
2022-10-15T00:30:20.256Z,11.43
2022-10-15T00:32:51.262Z,11.60
2022-10-15T00:35:24.281Z,10.17
2022-10-15T00:37:55.792Z,11.20
2022-10-15T00:40:27.187Z,10.00
2022-10-15T00:42:58.234Z,10.33
2022-10-15T00:45:29.343Z,10.10
2022-10-15T00:48:01.356Z,8.93
2022-10-15T00:50:34.774Z,9.13
2022-10-15T00:53:11.387Z,8.67
2022-10-15T00:55:46.684Z,8.00
2022-10-15T00:58:20.957Z,7.37
2022-10-15T01:00:52.145Z,8.30
2022-10-15T01:03:23.956Z,6.97
2022-10-15T01:05:59.016Z,8.33
2022-10-15T01:08:30.354Z,7.57
2022-10-15T01:11:11.769Z,7.57
2022-10-15T01:13:51.294Z,7.30
2022-10-15T01:16:28.034Z,7.80
2022-10-15T01:19:05.597Z,7.97
2022-10-15T01:21:44.971Z,7.83
2022-10-15T01:24:52.692Z,7.97
2022-10-15T01:27:34.721Z,8.50
2022-10-15T01:30:41.950Z,7.23
2022-10-15T01:33:28.336Z,8.30
2022-10-15T01:36:06.591Z,7.77
2022-10-15T01:38:56.790Z,8.17
2022-10-15T01:41:33.921Z,7.90
2022-10-15T01:44:10.023Z,7.83
2022-10-15T01:46:48.403Z,7.60
2022-10-15T01:49:24.229Z,6.90
2022-10-15T01:51:58.098Z,8.30
2022-10-15T01:54:31.888Z,7.60
2022-10-15T01:57:04.337Z,7.50
2022-10-15T01:59:37.557Z,7.37
2022-10-15T02:02:13.090Z,8.20
2022-10-15T02:04:44.131Z,8.43
2022-10-15T02:07:22.399Z,8.60
2022-10-15T02:10:01.161Z,9.00
2022-10-15T02:12:45.573Z,8.77
2022-10-15T02:15:26.616Z,9.17
2022-10-15T02:18:03.661Z,8.93
2022-10-15T02:20:42.524Z,9.47
2022-10-15T02:23:18.208Z,9.30
2022-10-15T02:25:51.753Z,9.60
2022-10-15T02:28:23.760Z,9.50
2022-10-15T02:30:57.996Z,9.47
2022-10-15T02:33:32.832Z,8.73
2022-10-15T02:36:04.682Z,9.30
2022-10-15T02:38:38.380Z,9.50
2022-10-15T02:41:11.671Z,9.33
2022-10-15T02:43:44.408Z,10.07
2022-10-15T02:46:17.953Z,10.13
2022-10-15T02:48:51.354Z,10.00
2022-10-15T02:51:24.097Z,10.23
2022-10-15T02:53:54.986Z,9.67
2022-10-15T02:58:59.509Z,9.83
2022-10-15T03:01:30.783Z,8.80
2022-10-15T03:04:04.780Z,9.50
2022-10-15T03:06:36.492Z,9.50
2022-10-15T03:09:07.552Z,9.30
2022-10-15T03:11:39.045Z,8.90
2022-10-15T03:14:10.259Z,9.17
2022-10-15T03:16:41.261Z,8.97
2022-10-15T03:19:15.060Z,8.77
2022-10-15T03:21:46.142Z,8.93
2022-10-15T03:24:17.188Z,9.23
2022-10-15T03:26:48.028Z,9.33
2022-10-15T03:29:19.352Z,9.20
2022-10-15T03:31:50.657Z,9.27
2022-10-15T03:34:24.115Z,8.73
2022-10-15T03:36:55.166Z,9.10
2022-10-15T03:39:26.167Z,8.80
2022-10-15T03:41:57.664Z,9.07
2022-10-15T03:44:28.612Z,9.37
2022-10-15T03:46:59.768Z,9.63
2022-10-15T03:49:33.279Z,9.47
2022-10-15T03:52:05.447Z,9.37
2022-10-15T03:54:36.902Z,10.30
2022-10-15T03:57:08.307Z,9.50
2022-10-15T03:59:40.044Z,9.93
2022-10-15T04:02:11.490Z,9.73
2022-10-15T04:04:45.329Z,9.77
2022-10-15T04:07:16.376Z,10.63
2022-10-15T04:09:47.501Z,11.63
2022-10-15T04:12:19.100Z,11.07
2022-10-15T04:14:50.026Z,12.67
2022-10-15T04:17:21.572Z,11.93
2022-10-15T04:19:55.869Z,12.73
2022-10-15T04:22:27.216Z,13.97
2022-10-15T04:24:58.711Z,14.87
2022-10-15T04:27:30.224Z,14.83
2022-10-15T04:30:01.486Z,15.57
2022-10-15T04:32:33.120Z,15.13
2022-10-15T04:35:05.866Z,15.77
2022-10-15T04:37:37.641Z,17.20
2022-10-15T04:40:10.286Z,17.87
2022-10-15T04:42:41.182Z,18.10
2022-10-15T04:45:12.737Z,18.73
2022-10-15T04:47:43.771Z,19.10
2022-10-15T04:50:16.831Z,19.83
2022-10-15T04:52:48.094Z,21.73
2022-10-15T04:55:21.793Z,21.80
2022-10-15T04:57:52.856Z,20.57
2022-10-15T05:00:23.766Z,21.33
2022-10-15T05:02:55.502Z,22.93
2022-10-15T05:05:28.987Z,24.70
2022-10-15T05:08:03.867Z,24.07
2022-10-15T05:10:35.598Z,23.50
2022-10-15T05:13:06.922Z,23.10
2022-10-15T05:15:37.963Z,22.37
2022-10-15T05:18:08.984Z,21.07
2022-10-15T05:20:44.569Z,21.00
2022-10-15T05:23:16.869Z,21.70
2022-10-15T05:25:51.675Z,20.23
2022-10-15T05:28:26.003Z,22.27
2022-10-15T05:30:57.244Z,21.73
2022-10-15T05:33:30.906Z,22.47
2022-10-15T05:36:12.812Z,21.50
2022-10-15T05:38:44.298Z,23.47
2022-10-15T05:41:16.208Z,23.17
2022-10-15T05:43:49.125Z,23.90
2022-10-15T05:46:20.907Z,23.07
2022-10-15T05:48:53.481Z,24.20
2022-10-15T05:51:28.708Z,23.57
2022-10-15T05:54:00.930Z,23.83
2022-10-15T05:56:31.813Z,24.00
2022-10-15T05:59:04.151Z,23.70
2022-10-15T06:01:35.229Z,23.53
2022-10-15T06:04:06.716Z,23.43
2022-10-15T06:06:40.561Z,23.03
2022-10-15T06:09:12.171Z,23.10
2022-10-15T06:11:43.318Z,22.77
2022-10-15T06:14:14.404Z,22.50
2022-10-15T06:16:46.269Z,22.83
2022-10-15T06:19:17.298Z,20.77
2022-10-15T06:21:54.485Z,21.20
2022-10-15T06:24:25.979Z,19.10
2022-10-15T06:26:56.985Z,19.17
2022-10-15T06:29:27.817Z,19.97
2022-10-15T06:32:00.070Z,19.70
2022-10-15T06:34:31.476Z,18.53
2022-10-15T06:37:04.959Z,20.17
2022-10-15T06:39:36.156Z,18.43
2022-10-15T06:42:07.324Z,18.10
2022-10-15T06:44:38.381Z,18.43
2022-10-15T06:47:10.206Z,19.27
2022-10-15T06:49:42.096Z,19.93
2022-10-15T06:52:15.860Z,19.23
2022-10-15T06:54:47.142Z,19.60
2022-10-15T06:57:18.008Z,20.43
2022-10-15T06:59:49.496Z,19.43
2022-10-15T07:02:21.179Z,20.10
2022-10-15T07:04:53.709Z,19.67
2022-10-15T07:07:27.099Z,18.83
2022-10-15T07:09:58.118Z,18.97
2022-10-15T07:12:29.347Z,18.60
2022-10-15T07:15:00.396Z,17.67
2022-10-15T07:17:36.137Z,17.67
2022-10-15T07:20:07.984Z,18.17
2022-10-15T07:22:40.716Z,18.87
2022-10-15T07:25:13.062Z,18.07
2022-10-15T07:27:45.223Z,19.17
2022-10-15T07:30:16.445Z,23.17
2022-10-15T07:32:47.952Z,22.77
2022-10-15T07:35:19.065Z,24.50
2022-10-15T07:37:52.912Z,23.30
2022-10-15T07:40:24.223Z,22.90
2022-10-15T07:42:59.700Z,22.00
2022-10-15T07:45:31.206Z,19.93
2022-10-15T07:48:02.680Z,19.03
2022-10-15T07:50:37.162Z,19.13
2022-10-15T07:53:12.928Z,17.90
2022-10-15T07:55:43.968Z,17.73
2022-10-15T07:58:14.961Z,18.10
2022-10-15T08:00:46.145Z,18.43
2022-10-15T08:03:17.041Z,17.93
2022-10-15T08:05:48.143Z,17.60
2022-10-15T08:08:22.725Z,18.40
2022-10-15T08:10:53.928Z,18.83
2022-10-15T08:13:25.181Z,19.50
2022-10-15T08:15:59.330Z,19.63
2022-10-15T08:18:31.385Z,19.70
2022-10-15T08:21:04.175Z,18.13
2022-10-15T08:23:38.103Z,20.23
2022-10-15T08:26:09.262Z,20.33
2022-10-15T08:28:42.235Z,20.17
2022-10-15T08:31:13.638Z,20.53
2022-10-15T08:33:47.517Z,20.83
2022-10-15T08:36:18.547Z,20.57
2022-10-15T08:38:51.800Z,21.43
2022-10-15T08:41:30.042Z,20.47
2022-10-15T08:44:01.247Z,21.30
2022-10-15T08:46:38.598Z,21.20
2022-10-15T08:49:16.349Z,21.97
2022-10-15T08:51:54.515Z,23.13
2022-10-15T08:54:27.851Z,22.03
2022-10-15T08:57:12.163Z,22.53
2022-10-15T08:59:51.956Z,22.23
2022-10-15T09:02:27.824Z,22.37
2022-10-15T09:05:06.828Z,23.47
2022-10-15T09:07:43.824Z,25.70
2022-10-15T09:10:22.215Z,25.07
2022-10-15T09:13:01.587Z,25.70
2022-10-15T09:15:42.564Z,26.63
2022-10-15T09:18:23.996Z,28.27
2022-10-15T09:20:56.224Z,27.13
2022-10-15T09:23:30.708Z,27.47
2022-10-15T09:26:09.707Z,28.57
2022-10-15T09:28:46.168Z,29.47
2022-10-15T09:31:23.317Z,28.60
2022-10-15T09:33:58.017Z,29.20
2022-10-15T09:36:39.862Z,30.07
2022-10-15T09:39:34.016Z,28.67
2022-10-15T09:42:19.834Z,29.77
2022-10-15T09:44:51.561Z,30.50
2022-10-15T09:47:27.477Z,32.03
2022-10-15T09:49:59.464Z,31.50
2022-10-15T09:52:48.724Z,32.57
2022-10-15T09:55:41.047Z,32.10
2022-10-15T09:58:20.261Z,34.13
2022-10-15T10:01:01.256Z,33.20
2022-10-15T10:03:34.297Z,33.33
2022-10-15T10:06:08.016Z,33.40
2022-10-15T10:08:42.277Z,32.83
2022-10-15T10:11:14.646Z,34.03
2022-10-15T10:13:55.598Z,32.73
2022-10-15T10:16:27.108Z,32.83
2022-10-15T10:19:15.728Z,32.60
2022-10-15T10:21:47.576Z,32.33
2022-10-15T10:24:31.599Z,32.03
2022-10-15T10:29:45.334Z,31.90
2022-10-15T10:32:23.275Z,29.07
2022-10-15T10:34:54.773Z,30.50
2022-10-15T10:37:26.710Z,30.43
2022-10-15T10:40:00.158Z,30.93
2022-10-15T10:42:39.045Z,31.10
2022-10-15T10:45:29.029Z,30.60
2022-10-15T10:48:01.620Z,29.47
2022-10-15T10:50:36.504Z,30.80
2022-10-15T10:53:26.613Z,30.50
2022-10-15T10:56:01.148Z,29.80
2022-10-15T10:58:37.043Z,30.60
2022-10-15T11:01:13.623Z,29.87
2022-10-15T11:03:47.308Z,30.30
2022-10-15T11:06:37.838Z,31.83
2022-10-15T11:09:42.357Z,34.23
2022-10-15T11:12:33.541Z,34.87
2022-10-15T11:15:20.640Z,37.83
2022-10-15T11:18:07.436Z,39.87
2022-10-15T11:20:58.803Z,40.90
2022-10-15T11:23:59.368Z,41.47
2022-10-15T11:26:52.470Z,43.27
2022-10-15T11:29:38.320Z,45.63
2022-10-15T11:32:25.588Z,48.17
2022-10-15T11:35:41.007Z,46.87
2022-10-15T11:38:21.704Z,49.53
2022-10-15T11:41:06.883Z,47.87
2022-10-15T11:43:54.340Z,50.67
2022-10-15T11:46:33.811Z,49.90
2022-10-15T11:49:20.606Z,51.23
2022-10-15T11:52:08.359Z,58.40
2022-10-15T11:54:42.787Z,57.33
2022-10-15T11:57:19.138Z,60.17
2022-10-15T11:59:56.120Z,58.73
2022-10-15T12:02:32.621Z,60.67
2022-10-15T12:05:08.352Z,66.27
2022-10-15T12:07:44.392Z,69.83
2022-10-15T12:10:33.432Z,79.57
2022-10-15T12:13:12.676Z,79.53
2022-10-15T12:15:51.342Z,78.27
2022-10-15T12:18:29.808Z,77.67
2022-10-15T12:21:00.832Z,72.87
2022-10-15T12:23:45.843Z,74.37
2022-10-15T12:26:35.840Z,72.33
2022-10-15T12:29:09.366Z,69.20
2022-10-15T12:31:53.746Z,65.97
2022-10-15T12:34:34.884Z,67.17
2022-10-15T12:37:10.243Z,67.20
2022-10-15T12:39:52.251Z,66.87
2022-10-15T12:42:28.912Z,64.40
2022-10-15T12:45:01.606Z,62.10
2022-10-15T12:47:52.348Z,66.07
2022-10-15T12:50:24.955Z,62.13
2022-10-15T12:53:05.451Z,64.17
2022-10-15T12:55:40.969Z,63.00
2022-10-15T12:58:35.639Z,62.60
2022-10-15T13:01:10.330Z,59.80
2022-10-15T13:03:45.375Z,63.67
2022-10-15T13:06:37.608Z,63.43
2022-10-15T13:09:25.336Z,65.47
2022-10-15T13:11:59.868Z,69.27
2022-10-15T13:14:36.974Z,68.27
2022-10-15T13:17:16.717Z,69.00
2022-10-15T13:19:53.034Z,69.97
2022-10-15T13:22:27.245Z,72.97
2022-10-15T13:24:58.826Z,73.90
2022-10-15T13:27:35.597Z,72.57
2022-10-15T13:30:09.094Z,76.67
2022-10-15T13:32:46.194Z,76.40
2022-10-15T13:35:21.367Z,75.83
2022-10-15T13:37:53.059Z,75.80
2022-10-15T13:40:26.462Z,73.37
2022-10-15T13:43:07.609Z,73.70
2022-10-15T13:45:38.901Z,69.53
2022-10-15T13:48:15.549Z,70.00
2022-10-15T13:50:49.392Z,66.07
2022-10-15T13:53:27.118Z,68.07
2022-10-15T13:55:59.346Z,66.17
2022-10-15T13:58:33.714Z,66.17
2022-10-15T14:01:09.020Z,66.67
2022-10-15T14:03:41.556Z,65.23
2022-10-15T14:06:20.234Z,66.30
2022-10-15T14:08:53.766Z,68.93
2022-10-15T14:11:25.364Z,71.60
2022-10-15T14:14:00.582Z,69.50
2022-10-15T14:16:35.034Z,74.57
2022-10-15T14:19:16.174Z,80.33
2022-10-15T14:21:49.685Z,83.33
2022-10-15T14:24:22.668Z,86.00
2022-10-15T14:26:54.389Z,85.07
2022-10-15T14:29:30.185Z,84.17
2022-10-15T14:32:01.706Z,91.10
2022-10-15T14:34:39.196Z,96.07
2022-10-15T14:37:31.621Z,95.80
2022-10-15T14:40:19.845Z,100.33
2022-10-15T14:42:59.769Z,99.50
2022-10-15T14:45:33.736Z,99.37
2022-10-15T14:48:11.313Z,101.53
2022-10-15T14:50:45.977Z,98.80
2022-10-15T14:53:23.317Z,99.97
2022-10-15T14:55:58.997Z,100.77
2022-10-15T14:58:35.397Z,102.80
2022-10-15T15:01:11.345Z,98.33
2022-10-15T15:03:47.692Z,102.50
2022-10-15T15:06:19.724Z,99.30
2022-10-15T15:08:51.604Z,98.47
2022-10-15T15:11:24.826Z,96.73
2022-10-15T15:13:56.864Z,95.73
2022-10-15T15:16:30.165Z,91.20
2022-10-15T15:19:01.349Z,92.73
2022-10-15T15:21:32.540Z,90.90
2022-10-15T15:24:03.355Z,90.80
2022-10-15T15:26:34.371Z,85.13
2022-10-15T15:29:08.032Z,88.17
2022-10-15T15:31:43.643Z,85.60
2022-10-15T15:34:17.463Z,84.57
2022-10-15T15:36:48.756Z,80.13
2022-10-15T15:39:20.200Z,81.37
2022-10-15T15:41:51.698Z,77.60
2022-10-15T15:44:23.767Z,73.70
2022-10-15T15:46:57.316Z,72.97
2022-10-15T15:49:28.574Z,68.37
2022-10-15T15:52:00.079Z,70.97
2022-10-15T15:54:31.169Z,65.57
2022-10-15T15:57:02.120Z,67.00
2022-10-15T15:59:33.191Z,65.10
2022-10-15T16:02:06.218Z,64.07
2022-10-15T16:04:38.400Z,63.07
2022-10-15T16:07:13.172Z,59.00
2022-10-15T16:09:45.475Z,55.70
2022-10-15T16:12:16.394Z,55.83
2022-10-15T16:14:47.765Z,56.37
2022-10-15T16:17:22.080Z,56.67
2022-10-15T16:19:53.616Z,55.60
2022-10-15T16:22:27.399Z,55.30
2022-10-15T16:24:59.026Z,53.23
2022-10-15T16:27:30.223Z,54.17
2022-10-15T16:30:01.660Z,51.67
2022-10-15T16:32:34.599Z,50.97
2022-10-15T16:35:06.034Z,53.17
2022-10-15T16:37:37.074Z,52.50
2022-10-15T16:40:09.476Z,56.07
2022-10-15T16:42:40.556Z,59.00
2022-10-15T16:45:13.198Z,59.60
2022-10-15T16:47:46.200Z,57.10
2022-10-15T16:50:17.284Z,59.90
2022-10-15T16:52:48.386Z,59.20
2022-10-15T16:55:19.691Z,61.90
2022-10-15T16:57:50.696Z,61.83
2022-10-15T17:00:21.793Z,60.87
2022-10-15T17:02:55.921Z,62.27
2022-10-15T17:05:26.942Z,64.67
2022-10-15T17:07:58.457Z,62.73
2022-10-15T17:10:29.419Z,62.27
2022-10-15T17:13:00.132Z,76.87
2022-10-15T17:15:31.199Z,79.27
2022-10-15T17:18:05.110Z,76.73
2022-10-15T17:20:36.856Z,80.80
2022-10-15T17:23:08.566Z,83.80
2022-10-15T17:25:39.571Z,77.17
2022-10-15T17:28:14.580Z,75.30
2022-10-15T17:30:45.952Z,77.73
2022-10-15T17:33:19.819Z,78.00
2022-10-15T17:35:50.904Z,77.27
2022-10-15T17:38:22.693Z,82.43
2022-10-15T17:40:53.901Z,95.70
2022-10-15T17:43:26.362Z,94.00
2022-10-15T17:46:03.254Z,92.47
2022-10-15T17:48:36.836Z,100.23
2022-10-15T17:51:08.814Z,100.10
2022-10-15T17:53:40.246Z,103.60
2022-10-15T17:56:16.239Z,104.70
2022-10-15T17:58:50.068Z,120.63
2022-10-15T18:01:33.214Z,118.73
2022-10-15T18:04:08.176Z,130.10
2022-10-15T18:06:39.610Z,131.77
2022-10-15T18:09:11.292Z,132.03
2022-10-15T18:11:42.544Z,132.03
2022-10-15T18:14:13.866Z,130.63
2022-10-15T18:16:45.321Z,129.80
2022-10-15T18:19:20.662Z,124.43
2022-10-15T18:21:52.123Z,119.83
2022-10-15T18:24:24.518Z,124.93
2022-10-15T18:26:56.003Z,124.03
2022-10-15T18:29:27.300Z,141.47
2022-10-15T18:31:58.774Z,148.63
2022-10-15T18:34:34.594Z,147.97
2022-10-15T18:37:05.440Z,140.63
2022-10-15T18:39:36.776Z,138.77
2022-10-15T18:42:08.389Z,136.23
2022-10-15T18:44:39.681Z,131.40
2022-10-15T18:47:11.259Z,129.50
2022-10-15T18:49:45.849Z,129.23
2022-10-15T18:52:35.259Z,124.87
2022-10-15T18:55:09.778Z,121.30
2022-10-15T18:57:40.420Z,120.37
2022-10-15T19:00:12.269Z,122.37
2022-10-15T19:02:43.303Z,117.47
2022-10-15T19:05:18.593Z,120.87
2022-10-15T19:07:49.604Z,120.57
2022-10-15T19:10:21.125Z,116.77
2022-10-15T19:12:52.124Z,116.33
2022-10-15T19:15:23.662Z,114.37
2022-10-15T19:17:55.541Z,115.10
2022-10-15T19:20:29.140Z,115.93
2022-10-15T19:23:00.680Z,116.50
2022-10-15T19:25:32.378Z,117.67
2022-10-15T19:28:03.961Z,118.60
2022-10-15T19:30:35.016Z,118.70
2022-10-15T19:33:08.950Z,121.33
2022-10-15T19:35:53.168Z,121.07
2022-10-15T19:38:24.828Z,116.77
2022-10-15T19:40:57.189Z,117.73
2022-10-15T19:43:28.470Z,121.43
2022-10-15T19:45:59.516Z,118.03
2022-10-15T19:48:30.869Z,119.17
2022-10-15T19:51:05.455Z,119.27
2022-10-15T19:53:37.008Z,120.83
2022-10-15T19:56:10.520Z,118.50
2022-10-15T19:58:41.534Z,120.27
2022-10-15T20:01:13.405Z,121.10
2022-10-15T20:03:44.362Z,118.00
2022-10-15T20:06:17.635Z,121.83
2022-10-15T20:08:48.669Z,124.90
2022-10-15T20:11:20.416Z,126.37
2022-10-15T20:13:51.603Z,123.00
2022-10-15T20:16:23.693Z,126.00
2022-10-15T20:18:57.225Z,125.60
2022-10-15T20:21:30.280Z,127.03
2022-10-15T20:24:05.318Z,125.97
2022-10-15T20:26:36.582Z,125.57
2022-10-15T20:29:07.880Z,127.50
2022-10-15T20:31:38.940Z,129.57
2022-10-15T20:34:10.814Z,127.93
2022-10-15T20:36:44.300Z,126.70
2022-10-15T20:39:15.357Z,131.23
2022-10-15T20:41:47.849Z,127.33
2022-10-15T20:44:18.895Z,126.07
2022-10-15T20:46:54.296Z,124.47
2022-10-15T20:49:29.737Z,122.00
2022-10-15T20:52:03.307Z,120.00
2022-10-15T20:54:37.628Z,119.73
2022-10-15T20:57:09.713Z,118.03
2022-10-15T20:59:40.695Z,117.60
2022-10-15T21:02:11.654Z,117.83
2022-10-15T21:04:43.152Z,121.97
2022-10-15T21:07:16.171Z,118.43
2022-10-15T21:09:47.727Z,120.57
2022-10-15T21:12:20.033Z,121.63
2022-10-15T21:14:51.423Z,122.17
2022-10-15T21:17:22.631Z,120.50
2022-10-15T21:19:54.015Z,126.57
2022-10-15T21:22:27.826Z,128.47
2022-10-15T21:24:58.733Z,133.30
2022-10-15T21:27:30.005Z,131.57
2022-10-15T21:30:01.958Z,128.93
2022-10-15T21:32:34.212Z,126.57
2022-10-15T21:35:05.452Z,114.03
2022-10-15T21:37:50.376Z,112.07
2022-10-15T21:40:22.087Z,108.90
2022-10-15T21:42:53.074Z,106.13
2022-10-15T21:45:24.092Z,107.80
2022-10-15T21:47:55.266Z,107.67
2022-10-15T21:50:27.756Z,101.47
2022-10-15T21:55:34.614Z,91.53
2022-10-15T21:58:05.712Z,90.07
2022-10-15T22:00:36.913Z,91.13
2022-10-15T22:03:08.430Z,93.40
2022-10-15T22:05:40.821Z,93.47
2022-10-15T22:08:15.245Z,92.20
2022-10-15T22:10:47.193Z,89.27
2022-10-15T22:13:18.653Z,87.50
2022-10-15T22:15:50.252Z,92.67
2022-10-15T22:18:21.236Z,86.47
2022-10-15T22:20:53.147Z,84.83
2022-10-15T22:23:27.954Z,84.10
2022-10-15T22:26:02.758Z,83.87
2022-10-15T22:28:34.261Z,84.87
2022-10-15T22:31:07.762Z,81.97
2022-10-15T22:33:40.768Z,82.47
2022-10-15T22:36:14.336Z,80.40
2022-10-15T22:38:49.307Z,81.67
2022-10-15T22:41:20.674Z,80.77
2022-10-15T22:43:52.261Z,84.83
2022-10-15T22:46:23.337Z,85.83
2022-10-15T22:48:54.574Z,86.43
2022-10-15T22:51:26.913Z,85.60
2022-10-15T22:54:01.115Z,86.80
2022-10-15T22:56:32.987Z,87.10
2022-10-15T22:59:05.424Z,90.17
2022-10-15T23:01:38.328Z,91.57
2022-10-15T23:04:10.447Z,95.73
2022-10-15T23:06:42.454Z,97.00
2022-10-15T23:09:18.488Z,97.37
2022-10-15T23:11:50.025Z,97.83
2022-10-15T23:14:21.179Z,92.13
2022-10-15T23:16:52.302Z,96.27
2022-10-15T23:19:25.441Z,93.63
2022-10-15T23:21:58.340Z,90.63
2022-10-15T23:24:31.901Z,91.70
2022-10-15T23:27:02.716Z,88.73
2022-10-15T23:29:33.801Z,87.37
2022-10-15T23:32:05.455Z,84.77
2022-10-15T23:34:36.937Z,84.33
2022-10-15T23:37:08.225Z,82.50
2022-10-15T23:39:42.268Z,82.90
2022-10-15T23:42:13.270Z,80.77
2022-10-15T23:44:44.542Z,80.73
2022-10-15T23:47:15.552Z,77.77
2022-10-15T23:49:46.743Z,75.13
2022-10-15T23:52:17.773Z,76.17
2022-10-15T23:54:53.348Z,76.07
2022-10-15T23:57:24.508Z,75.10
2022-10-15T23:59:55.847Z,74.93
